createdAt,value
2022-11-13T00:01:09.231Z,8.50
2022-11-13T00:03:37.055Z,8.37
2022-11-13T00:06:05.615Z,8.23
2022-11-13T00:08:33.889Z,8.67
2022-11-13T00:11:05.321Z,8.77
2022-11-13T00:13:34.297Z,8.63
2022-11-13T00:16:03.878Z,8.87
2022-11-13T00:18:32.259Z,9.47
2022-11-13T00:21:05.578Z,9.27
2022-11-13T00:23:34.661Z,9.20
2022-11-13T00:26:07.515Z,9.70
2022-11-13T00:28:35.375Z,9.93
2022-11-13T00:31:05.304Z,9.47
2022-11-13T00:34:02.093Z,9.10
2022-11-13T00:36:26.105Z,8.43
2022-11-13T00:38:55.123Z,8.97
2022-11-13T00:41:25.122Z,8.73
2022-11-13T00:43:53.130Z,8.60
2022-11-13T00:46:21.196Z,8.70
2022-11-13T00:48:49.035Z,9.00
2022-11-13T00:51:16.928Z,9.20
2022-11-13T00:53:44.777Z,9.20
2022-11-13T00:56:12.655Z,9.87
2022-11-13T00:58:41.898Z,10.10
2022-11-13T01:01:12.707Z,9.43
2022-11-13T01:03:40.848Z,9.27
2022-11-13T01:06:13.662Z,9.63
2022-11-13T01:08:41.938Z,10.27
2022-11-13T01:11:10.999Z,10.57
2022-11-13T01:13:39.127Z,10.50
2022-11-13T01:16:10.363Z,11.23
2022-11-13T01:18:38.514Z,10.60
2022-11-13T01:21:08.154Z,10.73
2022-11-13T01:23:36.518Z,9.93
2022-11-13T01:26:10.731Z,10.30
2022-11-13T01:28:39.570Z,10.00
2022-11-13T01:31:10.336Z,9.60
2022-11-13T01:33:38.518Z,9.40
2022-11-13T01:36:08.785Z,9.93
2022-11-13T01:38:37.710Z,8.93
2022-11-13T01:41:06.757Z,8.93
2022-11-13T01:43:37.573Z,8.97
2022-11-13T01:46:20.275Z,8.87
2022-11-13T01:48:51.335Z,8.83
2022-11-13T01:51:27.199Z,8.93
2022-11-13T01:53:55.643Z,9.00
2022-11-13T01:56:23.954Z,8.20
2022-11-13T01:58:59.647Z,9.00
2022-11-13T02:01:30.094Z,8.63
2022-11-13T02:03:57.990Z,8.17
2022-11-13T02:06:26.835Z,8.53
2022-11-13T02:08:55.052Z,8.57
2022-11-13T02:11:23.168Z,8.60
2022-11-13T02:13:51.298Z,8.50
2022-11-13T02:16:20.419Z,9.00
2022-11-13T02:18:49.911Z,9.30
2022-11-13T02:21:29.036Z,8.73
2022-11-13T02:24:05.610Z,9.60
2022-11-13T02:26:35.216Z,9.60
2022-11-13T02:29:03.070Z,9.27
2022-11-13T02:31:30.966Z,9.50
2022-11-13T02:33:58.826Z,10.27
2022-11-13T02:36:27.738Z,9.77
2022-11-13T02:39:00.086Z,10.03
2022-11-13T02:41:27.938Z,9.83
2022-11-13T02:43:57.353Z,10.07
2022-11-13T02:46:25.183Z,9.80
2022-11-13T02:48:52.987Z,9.30
2022-11-13T02:51:20.794Z,9.77
2022-11-13T02:53:48.669Z,9.57
2022-11-13T02:56:16.475Z,9.00
2022-11-13T02:58:44.560Z,8.80
2022-11-13T03:01:13.932Z,9.07
2022-11-13T03:03:57.193Z,9.87
2022-11-13T03:06:25.573Z,9.93
2022-11-13T03:08:53.427Z,9.37
2022-11-13T03:11:21.303Z,9.67
2022-11-13T03:13:49.203Z,9.03
2022-11-13T03:16:18.690Z,10.40
2022-11-13T03:18:46.495Z,9.80
2022-11-13T03:21:16.516Z,10.70
2022-11-13T03:23:46.067Z,10.67
2022-11-13T03:26:15.896Z,10.53
2022-11-13T03:28:44.266Z,11.07
2022-11-13T03:31:12.136Z,10.90
2022-11-13T03:33:41.396Z,10.83
2022-11-13T03:36:09.639Z,11.27
2022-11-13T03:38:37.651Z,11.03
2022-11-13T03:41:05.686Z,11.00
2022-11-13T03:43:33.574Z,10.50
2022-11-13T03:46:01.401Z,10.40
2022-11-13T03:48:29.771Z,10.97
2022-11-13T03:50:59.294Z,10.63
2022-11-13T03:53:27.153Z,11.23
2022-11-13T03:55:55.244Z,10.30
2022-11-13T03:58:23.108Z,11.30
2022-11-13T04:00:51.226Z,11.10
2022-11-13T04:03:19.084Z,10.97
2022-11-13T04:05:49.808Z,11.57
2022-11-13T04:08:19.806Z,11.13
2022-11-13T04:10:47.700Z,11.07
2022-11-13T04:13:15.643Z,11.70
2022-11-13T04:15:43.539Z,11.20
2022-11-13T04:18:11.348Z,11.13
2022-11-13T04:20:39.246Z,11.90
2022-11-13T04:23:11.446Z,11.60
2022-11-13T04:25:40.688Z,11.50
2022-11-13T04:28:08.535Z,11.00
2022-11-13T04:30:36.354Z,11.40
2022-11-13T04:33:04.492Z,10.93
2022-11-13T04:35:32.326Z,10.17
2022-11-13T04:38:00.143Z,10.83
2022-11-13T04:40:28.029Z,10.43
2022-11-13T04:42:56.240Z,10.37
2022-11-13T04:45:27.446Z,11.00
2022-11-13T04:47:55.434Z,10.43
2022-11-13T04:50:23.761Z,10.43
2022-11-13T04:52:51.633Z,11.13
2022-11-13T04:55:19.710Z,10.93
2022-11-13T04:57:47.668Z,10.83
2022-11-13T05:00:17.800Z,12.27
2022-11-13T05:02:45.714Z,12.27
2022-11-13T05:05:13.549Z,13.27
2022-11-13T05:07:42.583Z,15.60
2022-11-13T05:10:11.146Z,14.83
2022-11-13T05:12:38.932Z,17.27
2022-11-13T05:15:08.068Z,18.20
2022-11-13T05:17:37.259Z,17.97
2022-11-13T05:20:05.679Z,19.23
2022-11-13T05:22:33.530Z,18.80
2022-11-13T05:25:01.354Z,21.17
2022-11-13T05:27:29.162Z,19.77
2022-11-13T05:29:57.036Z,19.17
2022-11-13T05:32:24.889Z,18.33
2022-11-13T05:34:54.083Z,18.53
2022-11-13T05:37:21.886Z,17.97
2022-11-13T05:39:49.694Z,20.87
2022-11-13T05:42:17.516Z,19.00
2022-11-13T05:44:45.337Z,20.30
2022-11-13T05:47:13.156Z,17.60
2022-11-13T05:49:40.971Z,19.60
2022-11-13T05:52:10.156Z,18.80
2022-11-13T05:54:38.012Z,19.90
2022-11-13T05:57:05.862Z,19.13
2022-11-13T05:59:33.679Z,19.07
2022-11-13T06:02:02.383Z,19.27
2022-11-13T06:04:30.279Z,18.80
2022-11-13T06:06:58.161Z,17.27
2022-11-13T06:09:27.367Z,18.67
2022-11-13T06:11:55.291Z,17.87
2022-11-13T06:14:23.198Z,18.20
2022-11-13T06:16:51.047Z,19.73
2022-11-13T06:19:18.899Z,19.40
2022-11-13T06:21:46.744Z,19.70
2022-11-13T06:24:14.845Z,19.50
2022-11-13T06:26:44.076Z,19.47
2022-11-13T06:29:14.085Z,19.40
2022-11-13T06:31:41.958Z,19.83
2022-11-13T06:34:09.769Z,19.77
2022-11-13T06:36:38.581Z,18.63
2022-11-13T06:39:08.224Z,19.70
2022-11-13T06:41:36.213Z,19.87
2022-11-13T06:44:06.223Z,20.10
2022-11-13T06:46:34.470Z,20.57
2022-11-13T06:49:02.274Z,20.87
2022-11-13T06:51:32.346Z,20.57
2022-11-13T06:54:00.155Z,20.07
2022-11-13T06:56:28.352Z,18.87
2022-11-13T06:58:56.939Z,19.67
2022-11-13T07:01:27.790Z,19.33
2022-11-13T07:03:55.797Z,19.97
2022-11-13T07:06:25.612Z,18.63
2022-11-13T07:08:53.963Z,19.60
2022-11-13T07:11:23.609Z,19.63
2022-11-13T07:13:52.138Z,19.07
2022-11-13T07:16:20.259Z,19.43
2022-11-13T07:18:53.014Z,18.90
2022-11-13T07:21:21.845Z,20.03
2022-11-13T07:23:50.438Z,18.23
2022-11-13T07:26:18.658Z,19.40
2022-11-13T07:28:47.028Z,18.90
2022-11-13T07:31:16.343Z,17.27
2022-11-13T07:33:44.475Z,19.00
2022-11-13T07:36:13.652Z,19.97
2022-11-13T07:38:41.455Z,19.60
2022-11-13T07:41:09.422Z,19.07
2022-11-13T07:43:37.346Z,20.47
2022-11-13T07:46:05.163Z,20.77
2022-11-13T07:48:33.208Z,21.07
2022-11-13T07:51:02.578Z,22.27
2022-11-13T07:53:32.046Z,19.90
2022-11-13T07:56:02.814Z,20.70
2022-11-13T07:58:31.283Z,20.20
2022-11-13T08:01:03.220Z,19.53
2022-11-13T08:03:31.240Z,21.00
2022-11-13T08:06:02.472Z,20.03
2022-11-13T08:08:32.147Z,20.33
2022-11-13T08:11:00.153Z,19.63
2022-11-13T08:13:28.070Z,20.30
2022-11-13T08:15:56.011Z,21.07
2022-11-13T08:18:23.908Z,20.77
2022-11-13T08:20:51.701Z,22.30
2022-11-13T08:23:19.631Z,19.20
2022-11-13T08:25:48.919Z,20.07
2022-11-13T08:28:16.846Z,21.03
2022-11-13T08:30:45.945Z,21.03
2022-11-13T08:33:13.893Z,22.37
2022-11-13T08:35:41.684Z,18.87
2022-11-13T08:38:10.374Z,20.23
2022-11-13T08:40:38.347Z,22.43
2022-11-13T08:43:07.524Z,20.53
2022-11-13T08:45:35.434Z,21.40
2022-11-13T08:48:04.187Z,20.57
2022-11-13T08:50:34.260Z,22.50
2022-11-13T08:53:02.914Z,20.87
2022-11-13T08:55:30.698Z,23.03
2022-11-13T08:58:00.328Z,23.70
2022-11-13T09:00:31.263Z,21.67
2022-11-13T09:03:00.587Z,18.97
2022-11-13T09:05:29.009Z,20.77
2022-11-13T09:07:58.804Z,18.50
2022-11-13T09:10:27.479Z,20.70
2022-11-13T09:12:59.190Z,20.70
2022-11-13T09:15:27.282Z,22.00
2022-11-13T09:17:58.887Z,20.47
2022-11-13T09:20:27.074Z,22.13
2022-11-13T09:22:59.720Z,21.37
2022-11-13T09:25:32.828Z,20.43
2022-11-13T09:28:05.530Z,22.70
2022-11-13T09:30:34.902Z,19.73
2022-11-13T09:33:04.135Z,20.80
2022-11-13T09:35:35.824Z,22.60
2022-11-13T09:38:10.406Z,19.10
2022-11-13T09:40:44.084Z,21.80
2022-11-13T09:43:31.077Z,21.70
2022-11-13T09:46:11.984Z,18.83
2022-11-13T09:48:45.366Z,20.40
2022-11-13T09:51:17.300Z,21.93
2022-11-13T09:53:45.583Z,22.80
2022-11-13T09:56:26.247Z,21.00
2022-11-13T09:59:02.608Z,22.23
2022-11-13T10:01:41.557Z,23.23
2022-11-13T10:04:15.633Z,22.10
2022-11-13T10:07:02.010Z,23.57
2022-11-13T10:09:38.479Z,19.80
2022-11-13T10:12:09.604Z,19.80
2022-11-13T10:14:44.031Z,22.67
2022-11-13T10:17:18.959Z,22.60
2022-11-13T10:19:55.260Z,22.80
2022-11-13T10:22:33.464Z,22.53
2022-11-13T10:25:13.667Z,20.70
2022-11-13T10:27:41.997Z,19.60
2022-11-13T10:31:05.019Z,20.37
2022-11-13T10:33:33.439Z,18.40
2022-11-13T10:36:14.143Z,22.20
2022-11-13T10:38:44.954Z,21.53
2022-11-13T10:41:15.222Z,22.13
2022-11-13T10:43:53.090Z,21.37
2022-11-13T10:46:22.396Z,20.40
2022-11-13T10:48:50.202Z,19.80
2022-11-13T10:51:25.361Z,21.00
2022-11-13T10:53:54.310Z,20.73
2022-11-13T10:56:27.575Z,24.27
2022-11-13T10:59:03.544Z,21.40
2022-11-13T11:01:31.711Z,18.20
2022-11-13T11:03:59.579Z,18.67
2022-11-13T11:07:12.580Z,17.57
2022-11-13T11:09:27.372Z,18.37
2022-11-13T11:12:22.081Z,18.40
2022-11-13T11:15:19.382Z,18.47
2022-11-13T11:17:51.900Z,19.00
2022-11-13T11:20:25.346Z,19.10
2022-11-13T11:23:02.236Z,19.43
2022-11-13T11:25:39.138Z,19.23
2022-11-13T11:28:15.514Z,19.27
2022-11-13T11:30:51.642Z,18.77
2022-11-13T11:33:24.254Z,19.10
2022-11-13T11:35:57.886Z,19.90
2022-11-13T11:38:32.371Z,19.47
2022-11-13T11:41:10.703Z,19.53
2022-11-13T11:43:45.415Z,18.33
2022-11-13T11:46:14.235Z,19.67
2022-11-13T11:48:42.371Z,20.13
2022-11-13T11:51:21.966Z,19.77
2022-11-13T11:53:59.429Z,20.07
2022-11-13T11:56:33.576Z,19.27
2022-11-13T11:59:25.432Z,19.83
2022-11-13T12:02:26.914Z,20.97
2022-11-13T12:05:06.969Z,21.47
2022-11-13T12:07:42.946Z,20.60
2022-11-13T12:10:26.597Z,21.17
2022-11-13T12:13:15.606Z,20.70
2022-11-13T12:15:50.256Z,18.73
2022-11-13T12:18:29.301Z,20.00
2022-11-13T12:21:06.320Z,22.10
2022-11-13T12:23:53.721Z,20.23
2022-11-13T12:26:28.741Z,21.37
2022-11-13T12:29:05.185Z,22.77
2022-11-13T12:31:47.991Z,23.30
2022-11-13T12:34:22.575Z,23.30
2022-11-13T12:36:51.217Z,24.93
2022-11-13T12:39:33.579Z,21.03
2022-11-13T12:42:12.614Z,18.20
2022-11-13T12:44:51.415Z,19.67
2022-11-13T12:47:19.475Z,18.87
2022-11-13T12:49:47.379Z,19.33
2022-11-13T12:52:20.595Z,18.43
2022-11-13T12:54:48.518Z,20.57
2022-11-13T12:57:29.934Z,20.73
2022-11-13T13:00:00.522Z,20.00
2022-11-13T13:02:40.106Z,19.47
2022-11-13T13:05:20.754Z,20.83
2022-11-13T13:08:09.479Z,18.37
2022-11-13T13:10:49.987Z,18.00
2022-11-13T13:13:30.170Z,16.90
2022-11-13T13:16:00.220Z,20.23
2022-11-13T13:18:31.577Z,20.30
2022-11-13T13:21:04.335Z,19.37
2022-11-13T13:23:34.991Z,19.87
2022-11-13T13:26:14.239Z,20.70
2022-11-13T13:28:47.274Z,21.47
2022-11-13T13:31:26.633Z,18.77
2022-11-13T13:34:05.512Z,20.90
2022-11-13T13:36:41.479Z,19.40
2022-11-13T13:39:22.033Z,20.23
2022-11-13T13:42:12.869Z,19.70
2022-11-13T13:45:07.056Z,18.87
2022-11-13T13:47:38.989Z,18.80
2022-11-13T13:50:08.701Z,19.97
2022-11-13T13:52:37.955Z,20.13
2022-11-13T13:55:07.907Z,19.77
2022-11-13T13:57:42.075Z,18.53
2022-11-13T14:00:15.034Z,18.73
2022-11-13T14:02:47.636Z,21.20
2022-11-13T14:05:27.532Z,20.40
2022-11-13T14:07:55.763Z,19.30
2022-11-13T14:10:25.911Z,19.53
2022-11-13T14:12:53.701Z,19.37
2022-11-13T14:15:29.122Z,21.57
2022-11-13T14:18:07.837Z,20.37
2022-11-13T14:20:42.058Z,21.60
2022-11-13T14:23:13.741Z,22.40
2022-11-13T14:25:42.351Z,21.53
2022-11-13T14:28:17.006Z,21.90
2022-11-13T14:30:53.514Z,22.77
2022-11-13T14:33:25.408Z,23.20
2022-11-13T14:35:56.131Z,22.87
2022-11-13T14:38:25.974Z,22.23
2022-11-13T14:40:53.833Z,24.07
2022-11-13T14:43:26.068Z,23.17
2022-11-13T14:45:57.887Z,23.40
2022-11-13T14:48:27.855Z,23.20
2022-11-13T14:50:57.528Z,24.17
2022-11-13T14:53:31.383Z,26.10
2022-11-13T14:56:02.555Z,26.43
2022-11-13T14:58:32.122Z,25.83
2022-11-13T15:01:14.237Z,28.57
2022-11-13T15:03:43.780Z,28.13
2022-11-13T15:06:15.900Z,30.50
2022-11-13T15:08:44.793Z,34.77
2022-11-13T15:11:14.693Z,37.30
2022-11-13T15:13:43.078Z,37.93
2022-11-13T15:16:16.719Z,38.87
2022-11-13T15:18:49.427Z,42.17
2022-11-13T15:21:17.332Z,40.13
2022-11-13T15:23:45.243Z,39.60
2022-11-13T15:26:13.554Z,37.97
2022-11-13T15:28:41.763Z,38.30
2022-11-13T15:31:20.018Z,35.87
2022-11-13T15:33:48.724Z,33.90
2022-11-13T15:36:16.757Z,34.30
2022-11-13T15:38:44.749Z,32.77
2022-11-13T15:41:14.807Z,34.00
2022-11-13T15:43:46.170Z,34.70
2022-11-13T15:46:17.908Z,36.73
2022-11-13T15:48:46.076Z,36.60
2022-11-13T15:51:18.837Z,35.90
2022-11-13T15:53:49.312Z,36.80
2022-11-13T15:56:17.583Z,36.10
2022-11-13T15:58:45.350Z,41.60
2022-11-13T16:01:16.435Z,52.07
2022-11-13T16:03:44.345Z,59.13
2022-11-13T16:06:13.848Z,59.80
2022-11-13T16:08:42.759Z,59.93
2022-11-13T16:11:15.412Z,68.20
2022-11-13T16:13:43.668Z,53.90
2022-11-13T16:16:18.068Z,51.70
2022-11-13T16:18:46.075Z,55.23
2022-11-13T16:21:15.034Z,53.60
2022-11-13T16:23:43.112Z,56.63
2022-11-13T16:26:15.776Z,47.70
2022-11-13T16:31:32.805Z,56.57
2022-11-13T16:34:00.631Z,63.30
2022-11-13T16:36:28.778Z,70.30
2022-11-13T16:38:57.151Z,60.60
2022-11-13T16:41:24.982Z,60.70
2022-11-13T16:43:52.797Z,58.67
2022-11-13T16:46:27.192Z,59.10
2022-11-13T16:48:56.559Z,61.07
2022-11-13T16:51:24.598Z,75.70
2022-11-13T16:53:52.743Z,73.47
2022-11-13T16:56:28.067Z,62.83
2022-11-13T16:58:56.251Z,58.60
2022-11-13T17:01:24.971Z,50.60
2022-11-13T17:03:52.978Z,46.77
2022-11-13T17:06:27.999Z,49.17
2022-11-13T17:08:57.411Z,49.47
2022-11-13T17:11:26.367Z,53.60
2022-11-13T17:13:56.986Z,52.30
2022-11-13T17:16:26.404Z,61.87
2022-11-13T17:18:54.891Z,61.60
2022-11-13T17:21:26.551Z,59.83
2022-11-13T17:23:57.296Z,66.93
2022-11-13T17:26:25.855Z,65.93
2022-11-13T17:28:53.839Z,60.43
2022-11-13T17:31:22.410Z,57.33
2022-11-13T17:33:53.595Z,67.17
2022-11-13T17:36:21.550Z,63.20
2022-11-13T17:38:51.155Z,65.27
2022-11-13T17:41:19.583Z,80.07
2022-11-13T17:43:47.512Z,57.90
2022-11-13T17:46:17.169Z,67.60
2022-11-13T17:48:45.355Z,74.80
2022-11-13T17:51:14.913Z,76.20
2022-11-13T17:53:42.919Z,74.50
2022-11-13T17:56:13.437Z,93.37
2022-11-13T17:58:42.917Z,108.23
2022-11-13T18:01:14.233Z,148.37
2022-11-13T18:03:42.541Z,117.10
2022-11-13T18:06:13.509Z,132.67
2022-11-13T18:08:42.531Z,130.67
2022-11-13T18:11:15.452Z,131.63
2022-11-13T18:13:44.076Z,135.50
2022-11-13T18:16:15.973Z,140.80
2022-11-13T18:18:43.780Z,138.57
2022-11-13T18:21:22.355Z,127.07
2022-11-13T18:23:56.471Z,127.13
2022-11-13T18:26:25.990Z,106.50
2022-11-13T18:28:54.013Z,95.77
2022-11-13T18:31:23.306Z,105.23
2022-11-13T18:33:51.639Z,87.13
2022-11-13T18:36:19.667Z,58.33
2022-11-13T18:38:47.704Z,69.67
2022-11-13T18:41:17.779Z,52.30
2022-11-13T18:43:48.223Z,68.97
2022-11-13T18:46:18.034Z,86.53
2022-11-13T18:48:47.198Z,51.37
2022-11-13T18:51:17.596Z,48.90
2022-11-13T18:53:48.347Z,57.63
2022-11-13T18:56:18.310Z,51.13
2022-11-13T18:58:49.090Z,43.03
2022-11-13T19:01:22.678Z,42.13
2022-11-13T19:04:16.281Z,40.77
2022-11-13T19:06:40.160Z,36.70
2022-11-13T19:09:11.199Z,40.30
2022-11-13T19:11:39.003Z,37.13
2022-11-13T19:14:09.292Z,73.03
2022-11-13T19:16:39.199Z,62.63
2022-11-13T19:19:08.843Z,37.87
2022-11-13T19:21:37.459Z,38.97
2022-11-13T19:24:05.988Z,31.70
2022-11-13T19:26:34.292Z,34.33
2022-11-13T19:29:02.215Z,49.60
2022-11-13T19:31:31.461Z,59.77
2022-11-13T19:34:01.026Z,65.50
2022-11-13T19:36:30.453Z,57.67
2022-11-13T19:38:58.805Z,75.70
2022-11-13T19:41:28.655Z,76.73
2022-11-13T19:43:59.305Z,77.37
2022-11-13T19:46:27.581Z,82.97
2022-11-13T19:48:56.802Z,83.77
2022-11-13T19:51:27.841Z,83.53
2022-11-13T19:53:57.527Z,89.43
2022-11-13T19:56:28.484Z,95.00
2022-11-13T19:58:57.391Z,91.93
2022-11-13T20:01:26.914Z,88.07
2022-11-13T20:03:57.067Z,92.87
2022-11-13T20:06:25.310Z,88.27
2022-11-13T20:08:53.195Z,91.03
2022-11-13T20:11:21.113Z,84.80
2022-11-13T20:13:48.997Z,82.43
2022-11-13T20:16:20.875Z,87.03
2022-11-13T20:18:48.715Z,83.10
2022-11-13T20:21:24.462Z,84.80
2022-11-13T20:23:53.430Z,82.80
2022-11-13T20:26:21.232Z,79.87
2022-11-13T20:28:49.108Z,80.67
2022-11-13T20:31:19.610Z,84.73
2022-11-13T20:33:47.890Z,84.73
2022-11-13T20:36:18.448Z,85.60
2022-11-13T20:38:50.532Z,84.70
2022-11-13T20:41:20.609Z,83.10
2022-11-13T20:43:48.553Z,82.20
2022-11-13T20:46:18.012Z,75.57
2022-11-13T20:48:46.686Z,79.80
2022-11-13T20:51:16.409Z,71.33
2022-11-13T20:53:45.602Z,74.13
2022-11-13T20:56:14.251Z,56.37
2022-11-13T20:58:42.135Z,56.47
2022-11-13T21:01:11.926Z,52.40
2022-11-13T21:03:41.689Z,50.80
2022-11-13T21:06:10.554Z,50.93
2022-11-13T21:08:38.790Z,52.23
2022-11-13T21:11:09.479Z,48.93
2022-11-13T21:13:37.264Z,47.60
2022-11-13T21:16:09.239Z,45.50
2022-11-13T21:18:37.269Z,43.10
2022-11-13T21:21:08.032Z,45.13
2022-11-13T21:23:36.001Z,42.83
2022-11-13T21:26:05.749Z,42.87
2022-11-13T21:28:35.624Z,42.13
2022-11-13T21:31:04.312Z,43.70
2022-11-13T21:33:32.407Z,44.30
2022-11-13T21:36:05.793Z,42.33
2022-11-13T21:38:33.735Z,41.70
2022-11-13T21:41:19.547Z,43.60
2022-11-13T21:43:49.100Z,43.13
2022-11-13T21:46:17.258Z,43.53
2022-11-13T21:48:45.767Z,44.00
2022-11-13T21:51:14.011Z,44.17
2022-11-13T21:53:42.849Z,46.17
2022-11-13T21:56:15.388Z,45.70
2022-11-13T21:58:44.208Z,46.77
2022-11-13T22:01:14.514Z,44.97
2022-11-13T22:03:42.850Z,44.60
2022-11-13T22:06:22.059Z,45.87
2022-11-13T22:08:56.251Z,45.27
2022-11-13T22:11:24.350Z,45.20
2022-11-13T22:13:52.546Z,45.30
2022-11-13T22:16:22.303Z,43.20
2022-11-13T22:18:54.819Z,48.07
2022-11-13T22:21:24.084Z,47.77
2022-11-13T22:23:52.211Z,47.27
2022-11-13T22:26:21.113Z,45.73
2022-11-13T22:28:49.649Z,46.23
2022-11-13T22:31:19.263Z,45.83
2022-11-13T22:33:52.483Z,44.07
2022-11-13T22:36:24.258Z,46.77
2022-11-13T22:38:52.316Z,46.17
2022-11-13T22:41:23.724Z,46.93
2022-11-13T22:43:53.630Z,46.53
2022-11-13T22:46:23.491Z,44.87
2022-11-13T22:48:54.353Z,44.97
2022-11-13T22:51:23.981Z,42.47
2022-11-13T22:53:53.685Z,45.90
2022-11-13T22:56:22.989Z,46.00
2022-11-13T22:58:51.309Z,45.53
2022-11-13T23:01:21.641Z,49.73
2022-11-13T23:03:51.856Z,47.47
2022-11-13T23:06:22.991Z,47.63
2022-11-13T23:08:51.194Z,50.73
2022-11-13T23:11:20.856Z,54.67
2022-11-13T23:13:50.305Z,53.93
2022-11-13T23:16:19.371Z,59.33
2022-11-13T23:18:47.859Z,64.93
2022-11-13T23:21:16.742Z,79.57
2022-11-13T23:23:46.047Z,69.93
2022-11-13T23:26:15.585Z,79.70
2022-11-13T23:28:43.623Z,69.57
2022-11-13T23:31:11.781Z,73.60
2022-11-13T23:33:40.610Z,76.20
2022-11-13T23:36:09.554Z,74.83
2022-11-13T23:38:37.486Z,64.73
2022-11-13T23:41:07.074Z,61.53
2022-11-13T23:44:06.950Z,56.90
2022-11-13T23:46:22.768Z,57.70
2022-11-13T23:48:50.608Z,58.63
2022-11-13T23:51:18.434Z,57.87
2022-11-13T23:53:46.318Z,58.03
2022-11-13T23:56:15.516Z,55.23
2022-11-13T23:58:43.722Z,45.43
